createdAt,value
2023-02-23T00:00:07.958Z,127.85
2023-02-23T00:01:07.993Z,128.77
2023-02-23T00:02:08.042Z,126.50
2023-02-23T00:03:08.270Z,127.55
2023-02-23T00:04:08.132Z,125.42
2023-02-23T00:05:08.156Z,124.48
2023-02-23T00:06:08.214Z,126.08
2023-02-23T00:07:08.241Z,128.30
2023-02-23T00:08:08.583Z,126.85
2023-02-23T00:09:08.379Z,126.85
2023-02-23T00:10:08.381Z,125.03
2023-02-23T00:11:08.407Z,125.98
2023-02-23T00:12:08.604Z,125.36
2023-02-23T00:13:08.507Z,124.56
2023-02-23T00:14:08.542Z,124.94
2023-02-23T00:15:08.605Z,126.06
2023-02-23T00:16:08.671Z,125.50
2023-02-23T00:17:08.673Z,125.06
2023-02-23T00:18:08.738Z,125.50
2023-02-23T00:19:07.930Z,124.25
2023-02-23T00:20:08.811Z,124.61
2023-02-23T00:21:08.844Z,124.96
2023-02-23T00:22:08.889Z,124.32
2023-02-23T00:23:08.947Z,124.36
2023-02-23T00:24:08.979Z,123.34
2023-02-23T00:25:09.027Z,123.68
2023-02-23T00:26:09.095Z,124.26
2023-02-23T00:27:08.130Z,122.95
2023-02-23T00:28:09.217Z,123.34
2023-02-23T00:29:09.227Z,121.77
2023-02-23T00:30:09.264Z,125.65
2023-02-23T00:31:08.317Z,122.50
2023-02-23T00:32:08.497Z,123.19
2023-02-23T00:33:09.432Z,123.11
2023-02-23T00:34:09.439Z,121.95
2023-02-23T00:35:09.490Z,122.38
2023-02-23T00:36:09.554Z,123.17
2023-02-23T00:37:08.586Z,123.32
2023-02-23T00:38:08.630Z,123.79
2023-02-23T00:39:08.674Z,124.06
2023-02-23T00:40:09.716Z,123.49
2023-02-23T00:41:09.755Z,123.73
2023-02-23T00:42:09.813Z,122.66
2023-02-23T00:43:09.856Z,122.10
2023-02-23T00:44:08.945Z,122.59
2023-02-23T00:45:09.955Z,123.06
2023-02-23T00:46:10.036Z,121.82
2023-02-23T00:47:10.057Z,123.14
2023-02-23T00:48:10.109Z,122.46
2023-02-23T00:49:09.155Z,122.10
2023-02-23T00:50:10.198Z,123.44
2023-02-23T00:51:10.253Z,119.95
2023-02-23T00:52:09.297Z,121.56
2023-02-23T00:53:11.598Z,121.67
2023-02-23T00:54:10.389Z,120.51
2023-02-23T00:55:10.435Z,122.63
2023-02-23T00:56:10.490Z,120.38
2023-02-23T00:57:10.529Z,120.33
2023-02-23T00:58:10.610Z,119.56
2023-02-23T00:59:10.689Z,120.70
2023-02-23T01:00:10.715Z,121.04
2023-02-23T01:01:10.781Z,121.73
2023-02-23T01:02:09.835Z,120.16
2023-02-23T01:03:10.854Z,120.95
2023-02-23T01:04:10.893Z,120.23
2023-02-23T01:05:10.952Z,121.96
2023-02-23T01:06:11.003Z,121.75
2023-02-23T01:07:11.054Z,121.22
2023-02-23T01:08:11.101Z,119.61
2023-02-23T01:09:11.168Z,121.06
2023-02-23T01:10:11.307Z,119.82
2023-02-23T01:11:11.271Z,122.16
2023-02-23T01:12:11.319Z,119.96
2023-02-23T01:13:11.390Z,119.56
2023-02-23T01:14:11.439Z,120.14
2023-02-23T01:15:10.474Z,120.70
2023-02-23T01:16:11.605Z,118.56
2023-02-23T01:17:10.585Z,119.29
2023-02-23T01:18:11.663Z,119.73
2023-02-23T01:19:11.725Z,117.68
2023-02-23T01:20:11.768Z,119.95
2023-02-23T01:21:11.812Z,117.69
2023-02-23T01:22:11.863Z,119.43
2023-02-23T01:23:11.929Z,117.28
2023-02-23T01:24:12.051Z,119.14
2023-02-23T01:25:12.028Z,116.98
2023-02-23T01:26:12.093Z,118.09
2023-02-23T01:27:11.131Z,117.41
2023-02-23T01:28:11.220Z,119.06
2023-02-23T01:29:11.250Z,118.36
2023-02-23T01:30:12.299Z,118.69
2023-02-23T01:31:12.574Z,118.34
2023-02-23T01:32:12.660Z,116.16
2023-02-23T01:33:12.467Z,118.59
2023-02-23T01:34:12.517Z,118.85
2023-02-23T01:35:12.592Z,117.70
2023-02-23T01:36:12.633Z,117.53
2023-02-23T01:37:12.689Z,117.07
2023-02-23T01:38:12.753Z,116.52
2023-02-23T01:39:12.815Z,118.15
2023-02-23T01:40:12.849Z,117.76
2023-02-23T01:41:12.915Z,118.76
2023-02-23T01:42:12.959Z,116.16
2023-02-23T01:43:13.026Z,114.44
2023-02-23T01:44:13.090Z,116.63
2023-02-23T01:45:13.151Z,117.77
2023-02-23T01:46:12.235Z,116.76
2023-02-23T01:47:13.253Z,115.47
2023-02-23T01:48:13.380Z,115.62
2023-02-23T01:49:13.375Z,116.16
2023-02-23T01:50:13.435Z,114.71
2023-02-23T01:51:13.484Z,116.08
2023-02-23T01:52:13.558Z,115.33
2023-02-23T01:53:13.610Z,114.80
2023-02-23T01:54:12.671Z,114.46
2023-02-23T01:55:13.733Z,115.47
2023-02-23T01:56:13.782Z,113.33
2023-02-23T01:57:12.838Z,113.38
2023-02-23T01:58:13.910Z,113.30
2023-02-23T01:59:13.978Z,114.51
2023-02-23T02:00:14.026Z,115.49
2023-02-23T02:01:14.193Z,112.16
2023-02-23T02:02:14.142Z,114.86
2023-02-23T02:03:14.221Z,115.64
2023-02-23T02:04:14.282Z,112.98
2023-02-23T02:05:13.408Z,113.98
2023-02-23T02:06:14.379Z,112.74
2023-02-23T02:07:13.440Z,114.20
2023-02-23T02:08:14.506Z,113.55
2023-02-23T02:09:14.562Z,112.14
2023-02-23T02:10:13.660Z,113.51
2023-02-23T02:11:14.678Z,113.31
2023-02-23T02:12:14.740Z,111.25
2023-02-23T02:13:14.818Z,113.49
2023-02-23T02:14:14.873Z,112.10
2023-02-23T02:15:13.917Z,113.56
2023-02-23T02:16:15.089Z,114.75
2023-02-23T02:17:15.043Z,113.42
2023-02-23T02:18:15.090Z,111.34
2023-02-23T02:19:15.154Z,112.66
2023-02-23T02:20:15.237Z,113.95
2023-02-23T02:21:15.278Z,111.47
2023-02-23T02:22:14.335Z,111.48
2023-02-23T02:23:15.362Z,111.14
2023-02-23T02:24:15.421Z,110.75
2023-02-23T02:25:15.559Z,112.01
2023-02-23T02:26:15.514Z,111.14
2023-02-23T02:27:15.550Z,113.24
2023-02-23T02:28:15.598Z,112.35
2023-02-23T02:29:14.645Z,110.55
2023-02-23T02:30:14.680Z,111.40
2023-02-23T02:31:15.798Z,111.95
2023-02-23T02:32:14.825Z,111.08
2023-02-23T02:33:15.807Z,113.43
2023-02-23T02:34:15.828Z,111.55
2023-02-23T02:35:14.854Z,111.96
2023-02-23T02:36:15.975Z,114.17
2023-02-23T02:37:15.935Z,113.83
2023-02-23T02:38:15.958Z,111.89
2023-02-23T02:39:16.018Z,113.49
2023-02-23T02:40:16.182Z,113.16
2023-02-23T02:41:15.046Z,113.99
2023-02-23T02:42:16.067Z,112.78
2023-02-23T02:43:16.082Z,114.48
2023-02-23T02:44:16.167Z,114.31
2023-02-23T02:45:15.137Z,113.31
2023-02-23T02:46:16.233Z,115.05
2023-02-23T02:47:16.175Z,113.17
2023-02-23T02:48:16.200Z,115.42
2023-02-23T02:49:16.217Z,115.44
2023-02-23T02:50:16.228Z,113.62
2023-02-23T02:51:16.477Z,116.47
2023-02-23T02:52:15.280Z,114.94
2023-02-23T02:53:15.271Z,115.54
2023-02-23T02:54:16.272Z,114.95
2023-02-23T02:55:15.268Z,115.17
2023-02-23T02:56:16.284Z,116.44
2023-02-23T02:57:15.397Z,115.85
2023-02-23T02:58:16.304Z,113.64
2023-02-23T02:59:16.305Z,113.10
2023-02-23T03:00:16.316Z,114.48
2023-02-23T03:01:16.865Z,116.05
2023-02-23T03:02:16.342Z,112.52
2023-02-23T03:03:15.309Z,115.18
2023-02-23T03:04:16.325Z,115.75
2023-02-23T03:05:16.381Z,114.66
2023-02-23T03:06:16.304Z,116.41
2023-02-23T03:07:16.306Z,115.26
2023-02-23T03:08:15.339Z,116.97
2023-02-23T03:09:15.306Z,114.86
2023-02-23T03:10:16.330Z,114.84
2023-02-23T03:11:16.578Z,115.34
2023-02-23T03:12:16.340Z,116.13
2023-02-23T03:13:16.309Z,115.80
2023-02-23T03:14:15.302Z,116.31
2023-02-23T03:15:15.395Z,114.66
2023-02-23T03:16:16.353Z,115.93
2023-02-23T03:17:16.336Z,115.56
2023-02-23T03:18:16.319Z,115.05
2023-02-23T03:19:16.319Z,116.70
2023-02-23T03:20:15.319Z,115.66
2023-02-23T03:21:16.480Z,114.32
2023-02-23T03:22:16.299Z,114.92
2023-02-23T03:23:16.295Z,111.64
2023-02-23T03:24:16.333Z,112.82
2023-02-23T03:25:16.303Z,115.47
2023-02-23T03:26:16.299Z,113.70
2023-02-23T03:27:15.294Z,113.79
2023-02-23T03:28:16.291Z,114.84
2023-02-23T03:29:16.290Z,114.90
2023-02-23T03:30:16.288Z,113.34
2023-02-23T03:31:16.529Z,114.81
2023-02-23T03:32:16.449Z,112.57
2023-02-23T03:33:15.292Z,112.26
2023-02-23T03:34:16.298Z,114.48
2023-02-23T03:35:16.285Z,113.00
2023-02-23T03:36:16.282Z,112.06
2023-02-23T03:37:16.280Z,113.14
2023-02-23T03:38:16.288Z,113.65
2023-02-23T03:39:16.297Z,112.54
2023-02-23T03:40:15.322Z,113.98
2023-02-23T03:41:15.286Z,113.17
2023-02-23T03:42:16.285Z,113.28
2023-02-23T03:43:16.292Z,110.78
2023-02-23T03:44:16.294Z,110.65
2023-02-23T03:45:16.312Z,113.94
2023-02-23T03:46:16.310Z,110.78
2023-02-23T03:47:15.295Z,111.26
2023-02-23T03:48:16.283Z,111.30
2023-02-23T03:49:16.293Z,111.27
2023-02-23T03:50:16.325Z,111.15
2023-02-23T03:51:16.456Z,110.68
2023-02-23T03:52:16.283Z,111.46
2023-02-23T03:53:16.285Z,111.58
2023-02-23T03:54:16.293Z,109.35
2023-02-23T03:55:16.290Z,111.28
2023-02-23T03:56:16.329Z,110.69
2023-02-23T03:57:16.289Z,109.28
2023-02-23T03:58:16.286Z,110.46
2023-02-23T03:59:15.280Z,110.21
2023-02-23T04:00:16.284Z,109.42
2023-02-23T04:01:15.275Z,110.11
2023-02-23T04:02:16.323Z,109.03
2023-02-23T04:03:16.349Z,108.59
2023-02-23T04:04:15.268Z,108.57
2023-02-23T04:05:16.283Z,110.05
2023-02-23T04:06:15.268Z,108.26
2023-02-23T04:07:16.276Z,110.33
2023-02-23T04:08:16.261Z,110.48
2023-02-23T04:09:16.328Z,110.28
2023-02-23T04:10:15.265Z,109.23
2023-02-23T04:11:16.593Z,110.45
2023-02-23T04:12:15.304Z,107.92
2023-02-23T04:13:16.278Z,107.24
2023-02-23T04:14:16.258Z,109.11
2023-02-23T04:15:16.288Z,109.03
2023-02-23T04:16:16.312Z,107.13
2023-02-23T04:17:16.259Z,108.13
2023-02-23T04:18:16.266Z,109.31
2023-02-23T04:19:16.271Z,108.18
2023-02-23T04:20:16.294Z,107.97
2023-02-23T04:21:16.561Z,109.73
2023-02-23T04:22:15.319Z,107.47
2023-02-23T04:23:16.328Z,107.26
2023-02-23T04:24:16.324Z,107.29
2023-02-23T04:25:17.466Z,108.91
2023-02-23T04:26:16.392Z,106.46
2023-02-23T04:27:16.341Z,107.25
2023-02-23T04:28:15.353Z,107.18
2023-02-23T04:29:16.325Z,108.17
2023-02-23T04:30:16.328Z,105.73
2023-02-23T04:31:16.454Z,107.86
2023-02-23T04:32:16.478Z,106.17
2023-02-23T04:33:16.353Z,105.24
2023-02-23T04:34:16.344Z,108.88
2023-02-23T04:35:16.340Z,105.92
2023-02-23T04:36:16.333Z,106.11
2023-02-23T04:37:16.327Z,106.14
2023-02-23T04:38:16.350Z,105.53
2023-02-23T04:39:16.382Z,104.99
2023-02-23T04:40:15.375Z,105.48
2023-02-23T04:41:16.509Z,107.77
2023-02-23T04:42:15.375Z,106.36
2023-02-23T04:43:16.389Z,107.12
2023-02-23T04:44:16.585Z,106.35
2023-02-23T04:45:16.461Z,105.64
2023-02-23T04:46:16.485Z,105.18
2023-02-23T04:47:16.469Z,107.29
2023-02-23T04:48:16.507Z,106.65
2023-02-23T04:49:16.491Z,104.97
2023-02-23T04:50:16.499Z,106.53
2023-02-23T04:51:17.001Z,104.62
2023-02-23T04:52:15.550Z,105.95
2023-02-23T04:53:16.556Z,103.37
2023-02-23T04:54:16.568Z,104.43
2023-02-23T04:55:16.374Z,104.96
2023-02-23T04:56:16.639Z,105.04
2023-02-23T04:57:16.696Z,104.34
2023-02-23T04:58:16.704Z,103.65
2023-02-23T04:59:16.758Z,104.46
2023-02-23T05:00:16.882Z,105.19
2023-02-23T05:01:17.324Z,104.62
2023-02-23T05:02:16.887Z,103.53
2023-02-23T05:03:16.913Z,102.75
2023-02-23T05:04:15.908Z,103.79
2023-02-23T05:05:16.954Z,102.45
2023-02-23T05:06:16.995Z,104.31
2023-02-23T05:07:17.011Z,104.81
2023-02-23T05:08:16.043Z,102.69
2023-02-23T05:09:17.070Z,103.22
2023-02-23T05:10:17.131Z,102.59
2023-02-23T05:11:16.214Z,102.82
2023-02-23T05:12:17.190Z,101.93
2023-02-23T05:13:17.214Z,102.22
2023-02-23T05:14:17.235Z,101.43
2023-02-23T05:15:17.245Z,101.62
2023-02-23T05:16:17.420Z,102.00
2023-02-23T05:17:17.381Z,100.72
2023-02-23T05:18:17.361Z,101.18
2023-02-23T05:19:17.403Z,102.43
2023-02-23T05:20:17.433Z,103.36
2023-02-23T05:21:17.784Z,101.50
2023-02-23T05:22:17.515Z,101.39
2023-02-23T05:23:16.549Z,99.85
2023-02-23T05:24:17.606Z,101.15
2023-02-23T05:25:17.635Z,101.89
2023-02-23T05:26:16.675Z,101.89
2023-02-23T05:27:16.701Z,101.03
2023-02-23T05:28:17.728Z,100.35
2023-02-23T05:29:16.780Z,101.56
2023-02-23T05:30:17.777Z,100.93
2023-02-23T05:31:17.051Z,101.06
2023-02-23T05:32:16.949Z,99.41
2023-02-23T05:33:18.366Z,99.67
2023-02-23T05:34:17.837Z,98.99
2023-02-23T05:35:17.867Z,99.35
2023-02-23T05:36:17.896Z,98.83
2023-02-23T05:37:16.865Z,99.05
2023-02-23T05:38:17.874Z,100.39
2023-02-23T05:39:17.863Z,98.95
2023-02-23T05:40:16.887Z,97.70
2023-02-23T05:41:17.221Z,96.34
2023-02-23T05:42:17.938Z,97.90
2023-02-23T05:43:17.971Z,98.35
2023-02-23T05:44:18.022Z,96.33
2023-02-23T05:45:18.059Z,95.82
2023-02-23T05:46:18.146Z,96.07
2023-02-23T05:47:17.130Z,98.83
2023-02-23T05:48:17.181Z,98.58
2023-02-23T05:49:17.208Z,97.99
2023-02-23T05:50:18.222Z,97.13
2023-02-23T05:51:18.617Z,98.27
2023-02-23T05:52:18.296Z,97.95
2023-02-23T05:53:18.327Z,94.97
2023-02-23T05:54:18.381Z,96.17
2023-02-23T05:55:18.379Z,96.27
2023-02-23T05:56:18.412Z,97.71
2023-02-23T05:57:18.428Z,95.10
2023-02-23T05:58:18.538Z,96.64
2023-02-23T05:59:17.503Z,97.46
2023-02-23T06:00:18.534Z,96.39
2023-02-23T06:01:18.950Z,96.67
2023-02-23T06:02:18.627Z,95.55
2023-02-23T06:03:18.841Z,97.06
2023-02-23T06:03:27.472Z,25.00
2023-02-23T06:04:18.617Z,95.64
2023-02-23T06:04:28.428Z,25.00
2023-02-23T06:05:18.681Z,97.98
2023-02-23T06:05:28.721Z,25.00
2023-02-23T06:06:18.710Z,98.43
2023-02-23T06:06:28.315Z,25.00
2023-02-23T06:07:18.737Z,96.17
2023-02-23T06:07:28.308Z,25.00
2023-02-23T06:08:18.772Z,98.10
2023-02-23T06:09:18.798Z,96.86
2023-02-23T06:09:28.301Z,0.00
2023-02-23T06:10:18.833Z,96.93
2023-02-23T06:11:19.219Z,96.96
2023-02-23T06:12:17.916Z,96.26
2023-02-23T06:13:18.921Z,98.22
2023-02-23T06:13:27.236Z,0.00
2023-02-23T06:14:18.947Z,96.42
2023-02-23T06:15:18.982Z,95.73
2023-02-23T06:15:29.089Z,0.00
2023-02-23T06:16:19.139Z,96.41
2023-02-23T06:17:19.075Z,95.11
2023-02-23T06:18:19.087Z,95.05
2023-02-23T06:18:27.178Z,0.00
2023-02-23T06:19:18.122Z,95.45
2023-02-23T06:20:18.123Z,95.93
2023-02-23T06:21:19.421Z,95.41
2023-02-23T06:22:19.173Z,96.54
2023-02-23T06:22:28.124Z,0.00
2023-02-23T06:23:19.194Z,96.48
2023-02-23T06:23:28.109Z,0.00
2023-02-23T06:24:18.191Z,95.41
2023-02-23T06:24:28.079Z,0.00
2023-02-23T06:25:18.231Z,95.48
2023-02-23T06:26:18.267Z,94.80
2023-02-23T06:27:19.293Z,95.79
2023-02-23T06:28:19.314Z,96.51
2023-02-23T06:29:19.338Z,96.62
2023-02-23T06:30:18.346Z,95.14
2023-02-23T06:31:19.718Z,97.05
2023-02-23T06:32:19.547Z,95.60
2023-02-23T06:33:18.370Z,96.58
2023-02-23T06:34:19.406Z,101.27
2023-02-23T06:35:19.413Z,97.86
2023-02-23T06:36:19.441Z,99.06
2023-02-23T06:37:19.474Z,99.67
2023-02-23T06:38:18.510Z,101.45
2023-02-23T06:39:18.561Z,102.87
2023-02-23T06:40:19.655Z,101.82
2023-02-23T06:41:19.957Z,101.56
2023-02-23T06:41:46.385Z,25.00
2023-02-23T06:42:19.907Z,102.90
2023-02-23T06:42:48.067Z,25.00
2023-02-23T06:43:21.609Z,104.53
2023-02-23T06:43:47.276Z,25.00
2023-02-23T06:44:19.746Z,104.67
2023-02-23T06:44:46.240Z,25.00
2023-02-23T06:45:19.749Z,104.69
2023-02-23T06:45:47.238Z,25.00
2023-02-23T06:46:19.828Z,105.48
2023-02-23T06:46:47.328Z,26.79
2023-02-23T06:47:19.781Z,106.27
2023-02-23T06:47:47.297Z,25.00
2023-02-23T06:48:19.731Z,103.25
2023-02-23T06:48:47.247Z,25.74
2023-02-23T06:49:18.704Z,83.28
2023-02-23T06:49:46.241Z,27.75
2023-02-23T06:50:18.705Z,82.22
2023-02-23T06:50:47.266Z,25.76
2023-02-23T06:51:18.946Z,81.43
2023-02-23T06:51:47.167Z,26.00
2023-02-23T06:52:19.708Z,86.12
2023-02-23T06:52:47.337Z,25.97
2023-02-23T06:53:19.681Z,79.87
2023-02-23T06:53:47.153Z,25.99
2023-02-23T06:54:19.714Z,80.02
2023-02-23T06:54:47.131Z,25.00
2023-02-23T06:55:18.696Z,86.89
2023-02-23T06:55:46.185Z,29.39
2023-02-23T06:56:19.652Z,92.96
2023-02-23T06:56:47.210Z,32.09
2023-02-23T06:57:18.652Z,90.27
2023-02-23T06:57:47.407Z,25.00
2023-02-23T06:58:19.659Z,87.25
2023-02-23T06:58:47.233Z,25.00
2023-02-23T06:59:19.671Z,88.04
2023-02-23T06:59:47.328Z,26.33
2023-02-23T07:00:18.646Z,88.93
2023-02-23T07:01:20.012Z,86.57
2023-02-23T07:02:19.905Z,89.22
2023-02-23T07:03:19.619Z,98.11
2023-02-23T07:04:18.652Z,96.99
2023-02-23T07:05:09.961Z,25.00
2023-02-23T07:05:18.594Z,96.29
2023-02-23T07:06:19.605Z,98.05
2023-02-23T07:07:18.610Z,100.45
2023-02-23T07:08:18.600Z,106.79
2023-02-23T07:09:19.560Z,108.22
2023-02-23T07:10:18.557Z,114.27
2023-02-23T07:11:19.938Z,116.37
2023-02-23T07:12:18.557Z,119.29
2023-02-23T07:13:19.547Z,121.70
2023-02-23T07:14:26.472Z,126.66
2023-02-23T07:15:19.562Z,126.97
2023-02-23T07:16:19.557Z,127.96
2023-02-23T07:17:19.541Z,129.38
2023-02-23T07:18:19.530Z,132.21
2023-02-23T07:19:19.509Z,140.87
2023-02-23T07:20:19.591Z,141.93
2023-02-23T07:21:18.824Z,144.29
2023-02-23T07:22:19.506Z,145.57
2023-02-23T07:23:19.500Z,149.67
2023-02-23T07:24:19.534Z,153.43
2023-02-23T07:25:19.475Z,152.30
2023-02-23T07:26:19.469Z,157.30
2023-02-23T07:27:19.495Z,160.81
2023-02-23T07:28:19.465Z,158.94
2023-02-23T07:29:19.460Z,180.05
2023-02-23T07:30:19.460Z,208.91
2023-02-23T07:31:19.849Z,200.64
2023-02-23T07:32:18.550Z,194.92
2023-02-23T07:33:18.421Z,193.95
2023-02-23T07:34:19.419Z,191.01
2023-02-23T07:35:19.396Z,191.95
2023-02-23T07:36:19.423Z,193.18
2023-02-23T07:37:19.392Z,190.95
2023-02-23T07:38:19.413Z,191.06
2023-02-23T07:39:18.397Z,192.11
2023-02-23T07:40:19.380Z,192.39
2023-02-23T07:41:19.976Z,25.00
2023-02-23T07:42:19.372Z,191.17
2023-02-23T07:43:19.355Z,191.65
2023-02-23T07:43:56.809Z,25.00
2023-02-23T07:44:18.355Z,193.82
2023-02-23T07:45:19.356Z,193.47
2023-02-23T07:46:18.452Z,197.29
2023-02-23T07:46:29.919Z,25.00
2023-02-23T07:47:18.359Z,199.58
2023-02-23T07:48:19.318Z,200.90
2023-02-23T07:49:19.372Z,204.05
2023-02-23T07:50:19.400Z,207.70
2023-02-23T07:51:19.000Z,209.79
2023-02-23T07:52:19.964Z,211.85
2023-02-23T07:53:19.567Z,213.35
2023-02-23T07:54:19.642Z,214.40
2023-02-23T07:55:18.712Z,220.66
2023-02-23T07:56:19.751Z,210.32
2023-02-23T07:57:20.917Z,214.83
2023-02-23T07:58:19.840Z,215.88
2023-02-23T07:59:19.804Z,214.72
2023-02-23T08:00:18.784Z,212.71
2023-02-23T08:01:19.188Z,211.89
2023-02-23T08:02:19.823Z,213.89
2023-02-23T08:03:19.836Z,213.59
2023-02-23T08:04:19.857Z,214.24
2023-02-23T08:05:19.770Z,212.13
2023-02-23T08:06:19.758Z,211.75
2023-02-23T08:07:18.775Z,213.40
2023-02-23T08:08:19.752Z,211.33
2023-02-23T08:09:19.733Z,215.31
2023-02-23T08:10:19.739Z,213.15
2023-02-23T08:11:19.065Z,214.60
2023-02-23T08:12:19.735Z,221.83
2023-02-23T08:13:19.722Z,219.22
2023-02-23T08:14:19.697Z,220.28
2023-02-23T08:15:18.717Z,220.33
2023-02-23T08:16:19.761Z,222.10
2023-02-23T08:17:19.693Z,220.41
2023-02-23T08:18:19.736Z,227.35
2023-02-23T08:19:19.697Z,227.48
2023-02-23T08:20:19.735Z,232.60
2023-02-23T08:21:19.062Z,231.54
2023-02-23T08:22:19.729Z,239.14
2023-02-23T08:23:18.781Z,242.42
2023-02-23T08:24:18.801Z,241.30
2023-02-23T08:25:19.958Z,239.69
2023-02-23T08:26:19.924Z,238.63
2023-02-23T08:27:19.961Z,238.96
2023-02-23T08:28:19.019Z,240.67
2023-02-23T08:29:19.048Z,241.09
2023-02-23T08:30:20.094Z,241.31
2023-02-23T08:31:20.492Z,239.86
2023-02-23T08:32:20.257Z,239.70
2023-02-23T08:33:20.234Z,238.96
2023-02-23T08:34:19.280Z,239.90
2023-02-23T08:35:20.393Z,242.19
2023-02-23T08:36:20.354Z,240.16
2023-02-23T08:37:20.402Z,242.84
2023-02-23T08:38:20.473Z,247.65
2023-02-23T08:39:20.472Z,242.05
2023-02-23T08:40:20.526Z,243.63
2023-02-23T08:41:20.988Z,241.18
2023-02-23T08:42:20.624Z,245.12
2023-02-23T08:43:20.649Z,242.86
2023-02-23T08:44:20.677Z,241.29
2023-02-23T08:45:20.721Z,242.80
2023-02-23T08:46:19.883Z,244.77
2023-02-23T08:47:19.855Z,248.27
2023-02-23T08:48:20.944Z,246.51
2023-02-23T08:49:19.844Z,248.80
2023-02-23T08:50:20.865Z,249.88
2023-02-23T08:50:45.907Z,47.72
2023-02-23T08:51:59.640Z,39.34
2023-02-23T08:53:21.015Z,247.33
2023-02-23T08:54:21.081Z,248.40
2023-02-23T08:55:20.073Z,248.76
2023-02-23T08:56:21.210Z,248.93
2023-02-23T08:57:21.170Z,249.20
2023-02-23T08:58:21.195Z,249.76
2023-02-23T08:59:21.253Z,248.64
2023-02-23T09:00:21.343Z,250.00
2023-02-23T09:01:21.636Z,250.00
2023-02-23T09:02:21.356Z,249.38
2023-02-23T09:03:21.435Z,249.78
2023-02-23T09:04:21.470Z,248.18
2023-02-23T09:05:21.567Z,248.57
2023-02-23T09:05:51.825Z,25.00
2023-02-23T09:06:21.543Z,248.00
2023-02-23T09:07:20.594Z,250.00
2023-02-23T09:08:02.020Z,25.00
2023-02-23T09:08:20.644Z,249.08
2023-02-23T09:09:21.657Z,248.44
2023-02-23T09:10:21.790Z,249.96
2023-02-23T09:11:21.951Z,249.29
2023-02-23T09:12:20.797Z,249.08
2023-02-23T09:13:20.839Z,249.29
2023-02-23T09:14:20.886Z,247.92
2023-02-23T09:15:22.819Z,25.00
2023-02-23T09:16:20.974Z,25.00
2023-02-23T09:17:20.996Z,250.00
2023-02-23T09:18:22.837Z,25.00
2023-02-23T09:19:22.076Z,25.00
2023-02-23T09:20:21.031Z,25.00
2023-02-23T09:21:21.519Z,248.52
2023-02-23T09:22:22.211Z,249.45
2023-02-23T09:22:41.006Z,25.00
2023-02-23T09:23:22.261Z,248.82
2023-02-23T09:23:55.212Z,25.00
2023-02-23T09:24:22.291Z,248.38
2023-02-23T09:25:22.309Z,248.74
2023-02-23T09:26:22.557Z,248.90
2023-02-23T09:27:22.412Z,249.60
2023-02-23T09:27:43.295Z,25.00
2023-02-23T09:28:22.444Z,249.03
2023-02-23T09:29:22.459Z,249.70
2023-02-23T09:30:22.533Z,249.77
2023-02-23T09:31:23.080Z,249.45
2023-02-23T09:32:22.703Z,250.00
2023-02-23T09:33:22.620Z,250.00
2023-02-23T09:34:21.064Z,25.00
2023-02-23T09:35:22.677Z,249.59
2023-02-23T09:36:22.705Z,248.93
2023-02-23T09:37:22.745Z,249.26
2023-02-23T09:38:22.788Z,248.46
2023-02-23T09:39:32.386Z,249.61
2023-02-23T09:40:22.814Z,249.82
2023-02-23T09:41:08.398Z,25.00
2023-02-23T09:42:22.847Z,234.15
2023-02-23T09:43:22.964Z,267.53
2023-02-23T09:44:21.814Z,204.71
2023-02-23T09:44:46.797Z,25.00
2023-02-23T09:45:48.020Z,25.00
2023-02-23T09:46:46.733Z,25.00
2023-02-23T09:47:47.783Z,25.00
2023-02-23T09:48:48.641Z,25.00
2023-02-23T09:50:22.810Z,101.36
2023-02-23T09:51:22.719Z,91.13
2023-02-23T09:52:11.123Z,25.00
2023-02-23T09:53:11.576Z,25.00
2023-02-23T09:54:22.703Z,74.89
2023-02-23T09:55:22.702Z,67.04
2023-02-23T09:56:22.694Z,68.96
2023-02-23T09:57:21.735Z,69.69
2023-02-23T09:57:51.640Z,25.00
2023-02-23T09:59:01.915Z,25.00
2023-02-23T10:00:22.862Z,98.93
2023-02-23T10:01:08.880Z,25.00
2023-02-23T10:02:13.528Z,25.00
2023-02-23T10:03:22.876Z,90.09
2023-02-23T10:04:22.968Z,90.96
2023-02-23T10:05:23.044Z,92.61
2023-02-23T10:06:23.066Z,95.06
2023-02-23T10:07:23.136Z,97.69
2023-02-23T10:08:23.145Z,99.21
2023-02-23T10:09:22.106Z,102.03
2023-02-23T10:10:23.151Z,104.34
2023-02-23T10:10:47.277Z,25.00
2023-02-23T10:11:48.401Z,25.00
2023-02-23T10:12:47.863Z,25.00
2023-02-23T10:13:47.918Z,25.00
2023-02-23T10:15:23.172Z,115.82
2023-02-23T10:16:23.206Z,117.15
2023-02-23T10:17:23.223Z,119.11
2023-02-23T10:18:24.617Z,123.23
2023-02-23T10:19:18.413Z,25.00
2023-02-23T10:20:23.199Z,118.32
2023-02-23T10:21:23.188Z,123.00
2023-02-23T10:21:36.979Z,25.00
2023-02-23T10:22:23.190Z,127.66
2023-02-23T10:23:23.245Z,110.78
2023-02-23T10:24:22.190Z,94.95
2023-02-23T10:25:23.170Z,84.78
2023-02-23T10:26:22.157Z,90.05
2023-02-23T10:27:23.152Z,103.18
2023-02-23T10:28:23.134Z,114.30
2023-02-23T10:29:23.185Z,100.00
2023-02-23T10:29:51.110Z,25.00
2023-02-23T10:30:52.520Z,25.00
2023-02-23T10:32:22.261Z,98.11
2023-02-23T10:33:19.847Z,25.00
2023-02-23T10:34:23.673Z,101.47
2023-02-23T10:35:23.095Z,103.56
2023-02-23T10:35:43.146Z,25.00
2023-02-23T10:36:22.072Z,106.69
2023-02-23T10:37:23.146Z,107.77
2023-02-23T10:37:57.865Z,25.00
2023-02-23T10:39:23.276Z,113.23
2023-02-23T10:40:19.262Z,25.00
2023-02-23T10:41:20.547Z,25.00
2023-02-23T10:42:23.436Z,118.74
2023-02-23T10:43:23.477Z,121.72
2023-02-23T10:44:23.500Z,124.68
2023-02-23T10:44:57.936Z,25.00
2023-02-23T10:45:58.220Z,25.00
2023-02-23T10:46:59.023Z,25.00
2023-02-23T10:47:59.396Z,25.00
2023-02-23T10:48:58.887Z,25.00
2023-02-23T10:49:57.866Z,27.32
2023-02-23T10:50:58.803Z,19.02
2023-02-23T10:51:58.742Z,27.03
2023-02-23T10:52:58.299Z,28.01
2023-02-23T10:54:22.851Z,109.51
2023-02-23T10:55:24.453Z,104.26
2023-02-23T11:00:56.762Z,25.00
2023-02-23T11:16:25.296Z,149.26
2023-02-23T11:27:25.001Z,174.61
2023-02-23T11:28:23.938Z,177.13
2023-02-23T11:30:24.981Z,181.17
2023-02-23T11:31:25.006Z,181.89
2023-02-23T11:32:24.149Z,183.71
2023-02-23T11:33:25.005Z,187.30
2023-02-23T11:34:25.019Z,187.96
2023-02-23T11:35:24.018Z,191.19
2023-02-23T11:36:25.045Z,190.66
2023-02-23T11:37:25.044Z,191.51
2023-02-23T11:38:14.282Z,25.00
2023-02-23T11:38:25.065Z,191.14
2023-02-23T11:39:25.110Z,190.91
2023-02-23T11:40:25.120Z,192.88
2023-02-23T11:41:25.143Z,193.30
2023-02-23T11:42:25.148Z,191.80
2023-02-23T11:43:25.178Z,191.47
2023-02-23T11:44:25.516Z,191.59
2023-02-23T11:45:25.268Z,190.62
2023-02-23T11:46:25.346Z,190.32
2023-02-23T11:47:25.399Z,189.40
2023-02-23T11:48:25.520Z,188.17
2023-02-23T11:49:25.532Z,187.28
2023-02-23T11:50:25.434Z,186.88
2023-02-23T11:51:25.486Z,187.63
2023-02-23T11:53:25.567Z,187.26
2023-02-23T11:54:25.641Z,186.09
2023-02-23T11:55:25.706Z,186.09
2023-02-23T11:56:25.837Z,184.76
2023-02-23T11:58:25.857Z,184.02
2023-02-23T11:59:25.920Z,183.82
2023-02-23T12:01:26.029Z,184.08
2023-02-23T12:02:26.107Z,182.91
2023-02-23T12:03:25.161Z,183.05
2023-02-23T12:04:25.247Z,181.75
2023-02-23T12:05:26.293Z,181.50
2023-02-23T12:06:26.421Z,181.89
2023-02-23T12:07:26.411Z,181.82
2023-02-23T12:08:26.466Z,177.77
2023-02-23T12:09:25.535Z,178.18
2023-02-23T12:10:26.628Z,180.04
2023-02-23T12:11:26.627Z,179.00
2023-02-23T12:12:26.739Z,178.36
2023-02-23T12:13:26.725Z,177.70
2023-02-23T12:14:26.794Z,177.04
2023-02-23T12:15:26.830Z,177.70
2023-02-23T12:16:25.914Z,176.23
2023-02-23T12:17:25.910Z,175.43
2023-02-23T12:18:26.955Z,175.35
2023-02-23T12:19:27.092Z,176.54
2023-02-23T12:20:26.067Z,174.03
2023-02-23T12:21:27.110Z,176.28
2023-02-23T12:22:27.184Z,173.99
2023-02-23T12:23:27.193Z,174.02
2023-02-23T12:24:26.257Z,171.59
2023-02-23T12:25:26.271Z,171.92